createdAt,value
2019-01-21T00:00:34.652Z,33.53
2019-01-21T00:03:03.460Z,33.47
2019-01-21T00:05:31.887Z,33.07
2019-01-21T00:08:00.360Z,35.27
2019-01-21T00:10:28.791Z,33.97
2019-01-21T00:12:57.212Z,40.37
2019-01-21T00:15:25.725Z,34.73
2019-01-21T00:17:54.328Z,34.43
2019-01-21T00:20:23.869Z,33.10
2019-01-21T00:22:52.272Z,33.10
2019-01-21T00:25:20.720Z,34.63
2019-01-21T00:27:49.392Z,33.67
2019-01-21T00:30:18.358Z,35.10
2019-01-21T00:32:46.760Z,32.30
2019-01-21T00:35:15.311Z,34.43
2019-01-21T00:37:43.719Z,35.93
2019-01-21T00:40:18.812Z,34.03
2019-01-21T00:42:47.222Z,34.47
2019-01-21T00:45:15.812Z,36.40
2019-01-21T00:47:44.221Z,33.70
2019-01-21T00:50:14.633Z,35.20
2019-01-21T00:52:43.044Z,34.67
2019-01-21T00:55:13.577Z,35.87
2019-01-21T00:57:42.659Z,34.90
2019-01-21T01:00:14.306Z,36.47
2019-01-21T01:02:42.792Z,35.50
2019-01-21T01:05:11.720Z,36.23
2019-01-21T01:07:40.308Z,36.00
2019-01-21T01:10:11.780Z,33.93
2019-01-21T01:12:40.212Z,35.07
2019-01-21T01:15:10.965Z,34.90
2019-01-21T01:17:39.469Z,36.83
2019-01-21T01:20:16.651Z,32.90
2019-01-21T01:22:45.053Z,33.50
2019-01-21T01:25:14.040Z,33.40
2019-01-21T01:27:42.742Z,32.17
2019-01-21T01:30:14.465Z,34.10
2019-01-21T01:32:42.896Z,36.20
2019-01-21T01:35:12.755Z,33.37
2019-01-21T01:37:41.553Z,36.70
2019-01-21T01:40:12.873Z,33.10
2019-01-21T01:42:41.298Z,33.00
2019-01-21T01:45:13.452Z,34.20
2019-01-21T01:47:44.815Z,32.70
2019-01-21T01:50:13.467Z,36.23
2019-01-21T01:52:42.191Z,35.23
2019-01-21T01:55:11.438Z,35.47
2019-01-21T01:57:39.861Z,32.50
2019-01-21T02:00:14.016Z,30.30
2019-01-21T02:02:42.698Z,32.63
2019-01-21T02:05:11.406Z,32.40
2019-01-21T02:07:39.956Z,32.40
2019-01-21T02:10:13.070Z,35.43
2019-01-21T02:12:41.504Z,32.30
2019-01-21T02:15:15.057Z,32.10
2019-01-21T02:17:43.773Z,32.87
2019-01-21T02:20:15.536Z,31.60
2019-01-21T02:22:46.092Z,33.00
2019-01-21T02:25:14.998Z,31.50
2019-01-21T02:28:09.089Z,29.97
2019-01-21T02:30:49.613Z,30.90
2019-01-21T02:33:39.340Z,30.73
2019-01-21T02:36:19.643Z,31.17
2019-01-21T02:39:00.380Z,32.27
2019-01-21T02:41:32.318Z,31.27
2019-01-21T02:44:20.238Z,32.37
2019-01-21T02:46:56.800Z,30.67
2019-01-21T02:49:46.428Z,30.30
2019-01-21T02:52:26.589Z,31.67
2019-01-21T02:55:06.876Z,33.03
2019-01-21T02:57:47.133Z,32.90
2019-01-21T03:00:24.460Z,31.87
2019-01-21T03:02:58.749Z,34.17
2019-01-21T03:05:36.120Z,31.50
2019-01-21T03:08:16.328Z,33.67
2019-01-21T03:11:05.963Z,33.97
2019-01-21T03:13:46.582Z,33.97
2019-01-21T03:16:26.696Z,34.17
2019-01-21T03:18:58.256Z,32.70
2019-01-21T03:21:53.322Z,32.40
2019-01-21T03:24:39.859Z,33.13
2019-01-21T03:27:28.974Z,33.80
2019-01-21T03:30:24.247Z,32.30
2019-01-21T03:33:19.945Z,30.87
2019-01-21T03:36:08.062Z,32.37
2019-01-21T03:38:55.840Z,35.00
2019-01-21T03:41:30.069Z,32.90
2019-01-21T03:44:07.538Z,31.87
2019-01-21T03:47:01.564Z,34.97
2019-01-21T03:49:45.082Z,33.13
2019-01-21T03:52:34.612Z,35.37
2019-01-21T03:55:05.839Z,34.13
2019-01-21T03:57:45.603Z,34.63
2019-01-21T04:00:22.613Z,35.13
2019-01-21T04:03:06.021Z,34.47
2019-01-21T04:05:40.183Z,32.53
2019-01-21T04:08:11.962Z,32.87
2019-01-21T04:11:11.787Z,32.27
2019-01-21T04:13:52.142Z,33.90
2019-01-21T04:16:26.537Z,34.50
2019-01-21T04:18:58.041Z,31.63
2019-01-21T04:21:49.204Z,33.00
2019-01-21T04:24:35.808Z,32.90
2019-01-21T04:27:13.018Z,31.13
2019-01-21T04:29:56.519Z,31.67
2019-01-21T04:32:39.725Z,31.13
2019-01-21T04:35:11.500Z,28.10
2019-01-21T04:37:45.724Z,30.57
2019-01-21T04:40:25.465Z,33.57
2019-01-21T04:42:59.770Z,31.60
2019-01-21T04:45:31.253Z,30.83
2019-01-21T04:48:17.548Z,30.40
2019-01-21T04:50:57.661Z,32.50
2019-01-21T04:53:34.890Z,29.07
2019-01-21T04:56:32.797Z,31.97
2019-01-21T04:59:20.722Z,27.97
2019-01-21T05:01:53.562Z,31.13
2019-01-21T05:04:27.909Z,31.67
2019-01-21T05:07:05.075Z,30.50
2019-01-21T05:09:37.176Z,28.93
2019-01-21T05:12:08.885Z,28.87
2019-01-21T05:14:58.241Z,30.00
2019-01-21T05:17:53.556Z,27.63
2019-01-21T05:20:50.718Z,28.37
2019-01-21T05:23:33.839Z,31.77
2019-01-21T05:26:13.688Z,27.87
2019-01-21T05:29:02.156Z,27.77
2019-01-21T05:31:45.608Z,28.40
2019-01-21T05:34:19.704Z,29.07
2019-01-21T05:36:57.603Z,29.37
2019-01-21T05:39:53.331Z,29.40
2019-01-21T05:42:45.119Z,27.67
2019-01-21T05:45:36.146Z,29.77
2019-01-21T05:48:19.315Z,26.50
2019-01-21T05:50:56.543Z,28.10
2019-01-21T05:53:28.088Z,27.40
2019-01-21T05:56:10.805Z,27.87
2019-01-21T05:59:03.276Z,26.00
2019-01-21T06:01:37.573Z,26.50
2019-01-21T06:04:36.374Z,28.07
2019-01-21T06:07:28.436Z,27.40
2019-01-21T06:10:06.045Z,26.47
2019-01-21T06:12:43.250Z,28.13
2019-01-21T06:15:29.592Z,26.80
2019-01-21T06:18:13.030Z,28.80
2019-01-21T06:20:53.384Z,29.07
2019-01-21T06:23:30.378Z,26.33
2019-01-21T06:26:26.076Z,27.80
2019-01-21T06:29:09.209Z,26.60
2019-01-21T06:31:49.430Z,26.77
2019-01-21T06:34:39.793Z,25.70
2019-01-21T06:37:29.123Z,26.37
2019-01-21T06:40:06.368Z,27.00
2019-01-21T06:42:43.696Z,27.80
2019-01-21T06:45:15.335Z,25.60
2019-01-21T06:48:04.114Z,27.93
2019-01-21T06:50:56.543Z,25.50
2019-01-21T06:53:30.830Z,25.57
2019-01-21T06:56:07.944Z,26.50
2019-01-21T06:58:42.042Z,27.60
2019-01-21T07:01:34.632Z,27.13
2019-01-21T07:04:21.312Z,27.70
2019-01-21T07:07:01.042Z,28.63
2019-01-21T07:09:47.760Z,30.33
2019-01-21T07:12:37.066Z,27.30
2019-01-21T07:15:27.920Z,27.70
2019-01-21T07:18:11.900Z,26.70
2019-01-21T07:21:01.416Z,25.93
2019-01-21T07:23:57.287Z,27.03
2019-01-21T07:26:45.339Z,27.50
2019-01-21T07:29:25.124Z,27.80
2019-01-21T07:32:02.761Z,29.17
2019-01-21T07:34:52.561Z,25.10
2019-01-21T07:37:42.276Z,28.43
2019-01-21T07:40:16.469Z,28.63
2019-01-21T07:43:02.518Z,28.20
2019-01-21T07:45:51.346Z,30.60
2019-01-21T07:48:22.853Z,26.37
2019-01-21T07:51:15.596Z,29.37
2019-01-21T07:53:49.741Z,30.43
2019-01-21T07:56:36.088Z,29.67
2019-01-21T07:59:28.206Z,26.93
2019-01-21T08:02:27.006Z,28.93
2019-01-21T08:05:27.172Z,25.00
2019-01-21T08:07:58.686Z,27.20
2019-01-21T08:10:46.975Z,29.40
2019-01-21T08:13:30.461Z,29.40
2019-01-21T08:16:11.012Z,28.13
2019-01-21T08:19:01.734Z,27.80
2019-01-21T08:21:44.968Z,29.17
2019-01-21T08:24:48.233Z,29.17
2019-01-21T08:27:25.481Z,28.97
2019-01-21T08:30:11.802Z,33.30
2019-01-21T08:32:55.092Z,26.80
2019-01-21T08:35:32.739Z,30.00
2019-01-21T08:38:37.007Z,21.87
2019-01-21T08:41:30.209Z,29.17
2019-01-21T08:44:13.583Z,27.43
2019-01-21T08:46:47.528Z,28.33
2019-01-21T08:49:30.912Z,28.40
2019-01-21T08:52:14.601Z,29.90
2019-01-21T08:54:52.108Z,23.77
2019-01-21T08:57:29.488Z,26.30
2019-01-21T09:00:06.583Z,23.30
2019-01-21T09:02:38.158Z,19.37
2019-01-21T09:05:21.380Z,28.03
2019-01-21T09:08:13.973Z,29.90
2019-01-21T09:10:48.395Z,27.93
2019-01-21T09:13:37.448Z,27.70
2019-01-21T09:16:26.757Z,13.50
2019-01-21T09:18:58.244Z,26.57
2019-01-21T09:21:32.425Z,29.90
2019-01-21T09:24:04.062Z,29.00
2019-01-21T09:26:50.423Z,28.57
2019-01-21T09:29:40.257Z,29.00
2019-01-21T09:32:32.701Z,25.20
2019-01-21T09:35:18.955Z,28.00
2019-01-21T09:37:56.152Z,24.97
2019-01-21T09:40:46.916Z,25.20
2019-01-21T09:43:21.239Z,24.43
2019-01-21T09:45:58.468Z,29.70
2019-01-21T09:48:25.844Z,24.27
2019-01-21T09:50:57.363Z,27.60
2019-01-21T09:53:25.799Z,26.90
2019-01-21T09:55:55.285Z,26.80
2019-01-21T09:58:24.572Z,25.37
2019-01-21T10:00:52.985Z,22.87
2019-01-21T10:03:22.178Z,27.43
2019-01-21T10:05:53.660Z,17.90
2019-01-21T10:08:37.144Z,20.70
2019-01-21T10:11:26.433Z,28.17
2019-01-21T10:14:13.139Z,23.97
2019-01-21T10:16:47.655Z,19.37
2019-01-21T10:19:34.176Z,25.47
2019-01-21T10:22:11.255Z,19.40
2019-01-21T10:24:48.349Z,24.17
2019-01-21T10:27:25.397Z,28.73
2019-01-21T10:30:20.631Z,26.10
2019-01-21T10:33:11.898Z,25.67
2019-01-21T10:36:15.032Z,23.63
2019-01-21T10:38:58.515Z,21.07
2019-01-21T10:41:38.864Z,17.70
2019-01-21T10:44:47.398Z,22.83
2019-01-21T10:47:21.692Z,19.70
2019-01-21T10:49:57.292Z,27.33
2019-01-21T10:52:32.344Z,26.30
2019-01-21T10:55:03.849Z,22.17
2019-01-21T10:57:41.008Z,22.17
2019-01-21T11:00:36.721Z,22.00
2019-01-21T11:03:14.175Z,22.60
2019-01-21T11:06:11.166Z,23.20
2019-01-21T11:08:53.923Z,20.90
2019-01-21T11:11:59.356Z,25.83
2019-01-21T11:14:39.817Z,23.93
2019-01-21T11:17:22.621Z,22.87
2019-01-21T11:20:18.308Z,23.87
2019-01-21T11:23:00.999Z,20.60
2019-01-21T11:25:41.156Z,25.40
2019-01-21T11:28:12.648Z,25.97
2019-01-21T11:30:46.955Z,22.80
2019-01-21T11:33:38.964Z,22.53
2019-01-21T11:36:21.727Z,22.67
2019-01-21T11:39:10.700Z,19.10
2019-01-21T11:41:44.788Z,21.10
2019-01-21T11:44:32.842Z,21.37
2019-01-21T11:47:10.208Z,24.37
2019-01-21T11:49:59.289Z,23.40
2019-01-21T11:52:30.785Z,23.03
2019-01-21T11:55:26.137Z,21.30
2019-01-21T11:58:14.261Z,22.27
2019-01-21T12:01:00.636Z,21.03
2019-01-21T12:03:34.965Z,20.90
2019-01-21T12:06:04.544Z,21.63
2019-01-21T12:09:00.293Z,22.60
2019-01-21T12:11:37.668Z,24.60
2019-01-21T12:14:21.150Z,22.17
2019-01-21T12:17:01.394Z,19.80
2019-01-21T12:19:35.563Z,22.57
2019-01-21T12:22:09.556Z,22.87
2019-01-21T12:24:38.515Z,24.00
2019-01-21T12:27:24.185Z,19.67
2019-01-21T12:30:22.176Z,11.17
2019-01-21T12:33:11.894Z,19.37
2019-01-21T12:35:45.917Z,22.23
2019-01-21T12:38:36.556Z,18.90
2019-01-21T12:41:08.231Z,20.47
2019-01-21T12:43:42.611Z,22.37
2019-01-21T12:46:30.656Z,23.50
2019-01-21T12:49:07.878Z,20.50
2019-01-21T12:51:42.297Z,20.97
2019-01-21T12:54:33.149Z,21.83
2019-01-21T12:57:21.041Z,21.90
2019-01-21T13:00:01.195Z,19.87
2019-01-21T13:02:40.874Z,22.00
2019-01-21T13:05:15.285Z,20.03
2019-01-21T13:07:49.457Z,19.50
2019-01-21T13:10:23.685Z,20.27
2019-01-21T13:13:03.827Z,23.27
2019-01-21T13:15:56.590Z,22.00
2019-01-21T13:19:01.162Z,20.30
2019-01-21T13:21:55.139Z,22.47
2019-01-21T13:24:35.483Z,21.60
2019-01-21T13:27:24.425Z,20.57
2019-01-21T13:29:55.589Z,24.80
2019-01-21T13:32:41.912Z,22.07
2019-01-21T13:35:28.480Z,19.63
2019-01-21T13:38:01.404Z,22.73
2019-01-21T13:40:38.544Z,21.63
2019-01-21T13:43:12.712Z,23.37
2019-01-21T13:46:14.480Z,24.67
2019-01-21T13:48:54.763Z,21.93
2019-01-21T13:51:32.122Z,21.97
2019-01-21T13:54:12.464Z,23.20
2019-01-21T13:57:07.322Z,23.23
2019-01-21T13:59:44.024Z,22.47
2019-01-21T14:02:20.772Z,21.33
2019-01-21T14:04:57.853Z,22.23
2019-01-21T14:07:44.541Z,22.60
2019-01-21T14:10:43.055Z,22.77
2019-01-21T14:13:26.593Z,26.07
2019-01-21T14:16:00.732Z,22.00
2019-01-21T14:18:37.960Z,22.77
2019-01-21T14:21:12.400Z,19.03
2019-01-21T14:24:01.173Z,21.70
2019-01-21T14:26:56.007Z,21.50
2019-01-21T14:29:59.370Z,23.33
2019-01-21T14:32:36.921Z,23.20
2019-01-21T14:35:20.024Z,24.17
2019-01-21T14:38:06.349Z,23.13
2019-01-21T14:40:55.052Z,23.03
2019-01-21T14:43:32.314Z,23.33
2019-01-21T14:46:24.512Z,24.50
2019-01-21T14:48:56.153Z,23.13
2019-01-21T14:51:42.716Z,21.27
2019-01-21T14:54:16.781Z,23.23
2019-01-21T14:57:04.853Z,22.80
2019-01-21T14:59:48.254Z,21.50
2019-01-21T15:02:22.439Z,21.83
2019-01-21T15:05:18.310Z,21.50
2019-01-21T15:07:58.056Z,23.33
2019-01-21T15:10:32.454Z,23.20
2019-01-21T15:13:10.023Z,30.63
2019-01-21T15:15:46.916Z,25.20
2019-01-21T15:18:36.801Z,27.40
2019-01-21T15:21:17.253Z,22.27
2019-01-21T15:24:03.929Z,25.00
2019-01-21T15:26:50.672Z,23.00
2019-01-21T15:29:37.457Z,20.50
2019-01-21T15:32:12.001Z,22.13
2019-01-21T15:35:07.774Z,23.03
2019-01-21T15:37:45.096Z,24.53
2019-01-21T15:40:35.925Z,23.77
2019-01-21T15:43:22.386Z,21.70
2019-01-21T15:46:15.182Z,23.33
2019-01-21T15:49:01.752Z,23.87
2019-01-21T15:51:34.688Z,24.00
2019-01-21T15:54:27.412Z,23.97
2019-01-21T15:57:15.207Z,23.17
2019-01-21T15:59:58.342Z,23.47
2019-01-21T16:02:38.007Z,22.57
2019-01-21T16:05:14.788Z,23.83
2019-01-21T16:07:46.564Z,23.37
2019-01-21T16:10:42.033Z,23.77
2019-01-21T16:13:16.047Z,26.37
2019-01-21T16:15:47.547Z,21.97
2019-01-21T16:18:21.506Z,24.03
2019-01-21T16:20:58.614Z,21.63
2019-01-21T16:23:46.328Z,22.97
2019-01-21T16:26:14.752Z,22.30
2019-01-21T16:28:48.844Z,21.60
2019-01-21T16:31:20.337Z,23.50
2019-01-21T16:34:06.881Z,23.50
2019-01-21T16:36:50.220Z,21.90
2019-01-21T16:39:40.985Z,22.03
2019-01-21T16:42:14.137Z,25.00
2019-01-21T16:44:44.736Z,20.70
2019-01-21T16:47:13.169Z,15.70
2019-01-21T16:49:41.583Z,21.37
2019-01-21T16:52:10.019Z,21.63
2019-01-21T16:54:38.438Z,22.47
2019-01-21T16:57:06.843Z,22.87
2019-01-21T16:59:35.254Z,20.80
2019-01-21T17:02:03.671Z,22.80
2019-01-21T17:04:32.840Z,22.03
2019-01-21T17:07:01.477Z,21.70
2019-01-21T17:09:29.892Z,21.80
2019-01-21T17:11:58.329Z,22.37
2019-01-21T17:14:26.757Z,22.40
2019-01-21T17:16:55.160Z,21.13
2019-01-21T17:19:23.584Z,22.07
2019-01-21T17:21:52.054Z,20.87
2019-01-21T17:24:20.481Z,22.33
2019-01-21T17:26:48.888Z,24.07
2019-01-21T17:29:17.319Z,23.43
2019-01-21T17:31:45.716Z,23.17
2019-01-21T17:34:14.140Z,23.43
2019-01-21T17:36:42.567Z,22.57
2019-01-21T17:39:10.994Z,24.20
2019-01-21T17:41:42.356Z,24.00
2019-01-21T17:44:10.801Z,23.13
2019-01-21T17:46:39.200Z,23.73
2019-01-21T17:49:10.252Z,23.80
2019-01-21T17:51:38.648Z,23.87
2019-01-21T17:54:07.076Z,20.87
2019-01-21T17:56:35.492Z,25.20
2019-01-21T17:59:03.936Z,23.80
2019-01-21T18:01:32.340Z,24.10
2019-01-21T18:04:00.751Z,23.80
2019-01-21T18:06:29.164Z,23.67
2019-01-21T18:08:57.584Z,21.30
2019-01-21T18:11:25.980Z,24.33
2019-01-21T18:13:54.416Z,23.77
2019-01-21T18:16:23.145Z,24.13
2019-01-21T18:18:53.093Z,23.23
2019-01-21T18:21:21.518Z,24.90
2019-01-21T18:23:49.945Z,23.80
2019-01-21T18:26:18.362Z,23.97
2019-01-21T18:28:46.798Z,24.17
2019-01-21T18:31:15.200Z,22.87
2019-01-21T18:33:43.832Z,22.60
2019-01-21T18:36:12.402Z,25.83
2019-01-21T18:38:40.822Z,25.23
2019-01-21T18:41:09.696Z,21.57
2019-01-21T18:43:38.128Z,23.80
2019-01-21T18:46:06.532Z,24.23
2019-01-21T18:48:34.953Z,25.80
2019-01-21T18:51:03.371Z,24.30
2019-01-21T18:53:31.788Z,23.93
2019-01-21T18:56:00.198Z,22.70
2019-01-21T18:58:28.612Z,26.63
2019-01-21T19:00:57.189Z,25.13
2019-01-21T19:03:25.604Z,24.13
2019-01-21T19:05:54.017Z,24.53
2019-01-21T19:08:22.442Z,24.77
2019-01-21T19:10:50.999Z,25.17
2019-01-21T19:13:19.410Z,26.67
2019-01-21T19:15:47.817Z,25.70
2019-01-21T19:18:16.232Z,25.77
2019-01-21T19:20:44.645Z,24.77
2019-01-21T19:23:13.074Z,24.27
2019-01-21T19:25:41.517Z,24.60
2019-01-21T19:28:09.914Z,24.20
2019-01-21T19:30:38.332Z,23.70
2019-01-21T19:33:06.740Z,26.10
2019-01-21T19:35:35.868Z,24.70
2019-01-21T19:38:04.538Z,23.90
2019-01-21T19:40:33.325Z,21.33
2019-01-21T19:43:01.734Z,23.87
2019-01-21T19:45:30.153Z,25.90
2019-01-21T19:47:58.740Z,24.33
2019-01-21T19:50:27.161Z,25.90
2019-01-21T19:52:55.574Z,27.30
2019-01-21T19:55:27.205Z,24.30
2019-01-21T19:57:55.610Z,25.17
2019-01-21T20:00:24.888Z,25.40
2019-01-21T20:02:53.296Z,26.83
2019-01-21T20:05:25.557Z,25.20
2019-01-21T20:07:54.126Z,25.80
2019-01-21T20:10:24.295Z,23.53
2019-01-21T20:12:54.552Z,24.03
2019-01-21T20:15:23.133Z,23.90
2019-01-21T20:17:51.635Z,23.47
2019-01-21T20:20:25.982Z,22.50
2019-01-21T20:22:57.611Z,21.53
2019-01-21T20:25:25.049Z,21.63
2019-01-21T20:27:53.467Z,23.00
2019-01-21T20:30:23.900Z,24.07
2019-01-21T20:32:52.339Z,25.80
2019-01-21T20:35:20.745Z,23.30
2019-01-21T20:37:49.332Z,25.00
2019-01-21T20:40:20.838Z,24.63
2019-01-21T20:42:49.244Z,24.90
2019-01-21T20:45:18.088Z,24.47
2019-01-21T20:47:46.531Z,24.37
2019-01-21T20:50:17.910Z,24.13
2019-01-21T20:52:46.688Z,20.90
2019-01-21T20:55:16.202Z,24.10
2019-01-21T20:57:44.664Z,24.30
2019-01-21T21:00:19.450Z,23.53
2019-01-21T21:02:47.866Z,21.73
2019-01-21T21:05:16.300Z,24.27
2019-01-21T21:07:44.743Z,23.27
2019-01-21T21:10:13.620Z,25.10
2019-01-21T21:12:42.028Z,26.30
2019-01-21T21:15:19.255Z,25.20
2019-01-21T21:17:47.684Z,24.70
2019-01-21T21:20:16.538Z,26.70
2019-01-21T21:22:45.122Z,24.17
2019-01-21T21:25:16.705Z,26.13
2019-01-21T21:27:45.725Z,26.23
2019-01-21T21:30:25.825Z,26.40
2019-01-21T21:32:54.241Z,27.53
2019-01-21T21:35:23.132Z,25.13
2019-01-21T21:37:51.793Z,25.77
2019-01-21T21:40:21.801Z,28.57
2019-01-21T21:42:50.202Z,26.30
2019-01-21T21:45:20.651Z,26.97
2019-01-21T21:47:49.334Z,25.60
2019-01-21T21:50:20.772Z,27.93
2019-01-21T21:52:49.302Z,27.00
2019-01-21T21:55:17.784Z,28.23
2019-01-21T21:57:46.188Z,29.37
2019-01-21T22:00:20.704Z,30.50
2019-01-21T22:02:49.257Z,28.80
2019-01-21T22:05:18.413Z,27.10
2019-01-21T22:07:46.835Z,28.37
2019-01-21T22:10:19.713Z,27.20
2019-01-21T22:12:48.453Z,28.40
2019-01-21T22:15:19.334Z,28.60
2019-01-21T22:17:47.820Z,35.87
2019-01-21T22:20:18.477Z,31.20
2019-01-21T22:22:47.157Z,27.60
2019-01-21T22:25:16.028Z,25.80
2019-01-21T22:27:44.432Z,22.13
2019-01-21T22:30:18.630Z,31.17
2019-01-21T22:32:47.039Z,26.83
2019-01-21T22:35:15.618Z,29.20
2019-01-21T22:37:44.603Z,31.97
2019-01-21T22:40:15.989Z,28.03
2019-01-21T22:42:44.391Z,28.77
2019-01-21T22:45:14.542Z,26.40
2019-01-21T22:47:43.240Z,32.37
2019-01-21T22:50:14.665Z,33.63
2019-01-21T22:52:43.184Z,35.20
2019-01-21T22:55:13.338Z,37.03
2019-01-21T22:57:42.045Z,31.93
2019-01-21T23:00:39.511Z,35.53
2019-01-21T23:03:08.088Z,34.03
2019-01-21T23:05:36.589Z,33.13
2019-01-21T23:08:04.999Z,29.83
2019-01-21T23:10:33.442Z,34.43
2019-01-21T23:13:03.485Z,32.97
2019-01-21T23:15:31.908Z,40.67
2019-01-21T23:18:04.183Z,32.03
2019-01-21T23:20:30.489Z,36.40
2019-01-21T23:22:58.892Z,33.23
2019-01-21T23:25:27.300Z,30.63
2019-01-21T23:27:55.739Z,33.27
2019-01-21T23:30:24.483Z,32.80
2019-01-21T23:32:53.076Z,29.90
2019-01-21T23:35:21.552Z,32.03
2019-01-21T23:37:50.450Z,30.83
2019-01-21T23:40:19.117Z,30.10
2019-01-21T23:42:47.531Z,29.80
2019-01-21T23:45:15.941Z,25.20
2019-01-21T23:47:44.379Z,29.20
2019-01-21T23:50:14.818Z,26.40
2019-01-21T23:52:43.380Z,29.50
2019-01-21T23:55:13.420Z,32.47
2019-01-21T23:57:42.117Z,27.93
